Terminal Aerodrome Forecast
Issued by NWS

Home | Current Version | Previous Version | Text Only | Print | Product List | Glossary On
Versions: 1 2 3 4 5 6 7 8 9 10 11 12 13 14 15 16 17 18
000
FTUS41 KPBZ 301700
TAFMGW
TAF
KMGW 301720Z 3018/3118 26012G24KT P6SM SCT050
     FM310000 26005KT P6SM SCT050
     FM311200 19008KT P6SM OVC050
     FM311600 22013G20KT P6SM -SHRA OVC030=

USA.gov is the U.S. government's official web portal to all federal, state and local government web resources and services.